createdAt,value
2019-01-08T00:00:38.351Z,3.89
2019-01-08T00:01:38.362Z,3.80
2019-01-08T00:02:38.345Z,3.81
2019-01-08T00:03:38.347Z,3.80
2019-01-08T00:04:38.305Z,3.77
2019-01-08T00:05:38.318Z,3.81
2019-01-08T00:06:38.292Z,3.78
2019-01-08T00:07:38.269Z,3.80
2019-01-08T00:08:38.305Z,3.77
2019-01-08T00:09:38.264Z,3.84
2019-01-08T00:10:38.243Z,3.78
2019-01-08T00:11:38.241Z,3.77
2019-01-08T00:12:38.230Z,3.72
2019-01-08T00:13:38.211Z,3.70
2019-01-08T00:14:38.212Z,3.71
2019-01-08T00:15:38.186Z,3.74
2019-01-08T00:16:38.182Z,3.67
2019-01-08T00:17:38.189Z,3.64
2019-01-08T00:18:38.154Z,3.72
2019-01-08T00:19:38.169Z,3.63
2019-01-08T00:20:38.149Z,3.67
2019-01-08T00:21:38.144Z,3.64
2019-01-08T00:22:38.115Z,3.57
2019-01-08T00:23:38.108Z,3.57
2019-01-08T00:24:38.096Z,3.54
2019-01-08T00:25:38.100Z,3.62
2019-01-08T00:26:38.071Z,3.60
2019-01-08T00:27:38.065Z,3.63
2019-01-08T00:28:43.016Z,3.63
2019-01-08T00:29:39.042Z,3.59
2019-01-08T00:30:38.067Z,3.62
2019-01-08T00:31:38.040Z,3.62
2019-01-08T00:32:38.008Z,3.62
2019-01-08T00:33:37.998Z,3.52
2019-01-08T00:34:37.994Z,3.50
2019-01-08T00:35:37.994Z,3.54
2019-01-08T00:36:37.963Z,3.52
2019-01-08T00:37:38.034Z,3.56
2019-01-08T00:38:37.945Z,3.53
2019-01-08T00:39:37.936Z,3.46
2019-01-08T00:40:37.962Z,3.37
2019-01-08T00:41:37.911Z,3.23
2019-01-08T00:42:37.909Z,3.25
2019-01-08T00:43:37.909Z,3.23
2019-01-08T00:44:37.901Z,3.12
2019-01-08T00:45:37.887Z,3.12
2019-01-08T00:46:37.861Z,3.04
2019-01-08T00:47:37.852Z,3.01
2019-01-08T00:48:37.841Z,2.98
2019-01-08T00:49:37.827Z,3.04
2019-01-08T00:50:37.834Z,2.94
2019-01-08T00:51:37.861Z,2.87
2019-01-08T00:52:37.836Z,2.89
2019-01-08T00:53:37.794Z,2.84
2019-01-08T00:54:37.841Z,2.90
2019-01-08T00:55:37.790Z,2.81
2019-01-08T00:56:37.759Z,2.80
2019-01-08T00:57:37.745Z,2.77
2019-01-08T00:58:37.772Z,2.76
2019-01-08T00:59:37.731Z,2.71
2019-01-08T01:00:37.740Z,2.80
2019-01-08T01:01:37.710Z,2.73
2019-01-08T01:02:37.692Z,2.77
2019-01-08T01:03:37.683Z,2.73
2019-01-08T01:04:37.669Z,2.76
2019-01-08T01:05:37.671Z,2.73
2019-01-08T01:06:37.668Z,2.80
2019-01-08T01:07:37.638Z,2.69
2019-01-08T01:08:37.675Z,2.66
2019-01-08T01:09:37.624Z,2.76
2019-01-08T01:10:37.616Z,2.73
2019-01-08T01:11:37.620Z,2.77
2019-01-08T01:12:37.592Z,2.73
2019-01-08T01:13:37.586Z,2.76
2019-01-08T01:14:37.570Z,2.73
2019-01-08T01:15:37.560Z,2.73
2019-01-08T01:16:37.565Z,2.74
2019-01-08T01:17:37.536Z,2.79
2019-01-08T01:18:37.524Z,2.77
2019-01-08T01:19:37.517Z,2.73
2019-01-08T01:20:37.509Z,2.74
2019-01-08T01:21:37.508Z,2.74
2019-01-08T01:22:37.482Z,2.73
2019-01-08T01:23:37.482Z,2.74
2019-01-08T01:24:37.469Z,2.81
2019-01-08T01:25:37.451Z,2.81
2019-01-08T01:26:37.461Z,2.74
2019-01-08T01:27:37.435Z,2.76
2019-01-08T01:28:37.426Z,2.76
2019-01-08T01:29:37.411Z,2.65
2019-01-08T01:30:37.407Z,2.65
2019-01-08T01:31:37.461Z,2.77
2019-01-08T01:32:37.385Z,2.79
2019-01-08T01:33:37.377Z,2.77
2019-01-08T01:34:37.361Z,2.80
2019-01-08T01:35:37.346Z,2.77
2019-01-08T01:36:37.351Z,2.74
2019-01-08T01:37:37.349Z,2.77
2019-01-08T01:38:37.342Z,2.74
2019-01-08T01:39:37.326Z,2.84
2019-01-08T01:40:37.302Z,2.74
2019-01-08T01:41:37.303Z,2.65
2019-01-08T01:42:37.276Z,2.69
2019-01-08T01:43:37.263Z,2.76
2019-01-08T01:44:37.270Z,2.76
2019-01-08T01:45:37.266Z,2.69
2019-01-08T01:46:37.232Z,2.79
2019-01-08T01:47:37.223Z,2.74
2019-01-08T01:48:37.254Z,2.74
2019-01-08T01:49:37.216Z,2.74
2019-01-08T01:50:37.190Z,2.81
2019-01-08T01:51:37.190Z,2.83
2019-01-08T01:52:37.187Z,2.79
2019-01-08T01:53:37.165Z,2.79
2019-01-08T01:54:37.179Z,2.77
2019-01-08T01:55:37.140Z,2.74
2019-01-08T01:56:37.146Z,2.83
2019-01-08T01:57:37.117Z,2.76
2019-01-08T01:58:37.110Z,2.89
2019-01-08T01:59:37.139Z,2.87
2019-01-08T02:00:37.108Z,2.87
2019-01-08T02:01:37.091Z,2.89
2019-01-08T02:02:37.067Z,2.94
2019-01-08T02:03:37.066Z,3.02
2019-01-08T02:04:37.051Z,2.92
2019-01-08T02:05:37.050Z,3.05
2019-01-08T02:06:37.021Z,3.07
2019-01-08T02:07:37.018Z,3.10
2019-01-08T02:08:37.016Z,3.12
2019-01-08T02:09:36.991Z,3.12
2019-01-08T02:10:37.024Z,3.20
2019-01-08T02:11:36.973Z,3.13
2019-01-08T02:12:36.983Z,3.15
2019-01-08T02:13:36.964Z,3.20
2019-01-08T02:14:36.948Z,3.23
2019-01-08T02:15:36.943Z,3.17
2019-01-08T02:16:36.916Z,3.22
2019-01-08T02:17:36.933Z,3.23
2019-01-08T02:18:36.902Z,3.20
2019-01-08T02:19:36.919Z,3.13
2019-01-08T02:20:36.904Z,3.12
2019-01-08T02:21:36.867Z,3.15
2019-01-08T02:22:36.870Z,3.22
2019-01-08T02:23:36.851Z,3.25
2019-01-08T02:24:36.844Z,3.26
2019-01-08T02:25:36.823Z,3.20
2019-01-08T02:26:36.822Z,3.28
2019-01-08T02:27:36.821Z,3.31
2019-01-08T02:28:36.791Z,3.28
2019-01-08T02:29:36.788Z,3.37
2019-01-08T02:30:36.785Z,3.37
2019-01-08T02:31:36.796Z,3.35
2019-01-08T02:32:36.946Z,3.45
2019-01-08T02:33:36.739Z,3.39
2019-01-08T02:34:36.771Z,3.37
2019-01-08T02:35:36.743Z,3.35
2019-01-08T02:36:36.709Z,3.42
2019-01-08T02:37:36.698Z,3.37
2019-01-08T02:38:36.702Z,3.46
2019-01-08T02:39:36.683Z,3.45
2019-01-08T02:40:36.666Z,3.44
2019-01-08T02:41:36.675Z,3.57
2019-01-08T02:42:36.650Z,3.50
2019-01-08T02:43:36.662Z,3.49
2019-01-08T02:44:36.651Z,3.49
2019-01-08T02:45:36.616Z,3.42
2019-01-08T02:46:36.749Z,3.42
2019-01-08T02:47:36.596Z,3.52
2019-01-08T02:48:36.598Z,3.52
2019-01-08T02:49:36.577Z,3.56
2019-01-08T02:50:36.562Z,3.42
2019-01-08T02:51:36.551Z,3.53
2019-01-08T02:52:36.541Z,3.53
2019-01-08T02:53:36.553Z,3.56
2019-01-08T02:54:36.535Z,3.54
2019-01-08T02:55:36.513Z,3.54
2019-01-08T02:56:36.511Z,3.59
2019-01-08T02:57:36.502Z,3.60
2019-01-08T02:58:36.497Z,3.57
2019-01-08T02:59:36.471Z,3.56
2019-01-08T03:00:36.472Z,3.62
2019-01-08T03:01:36.444Z,3.64
2019-01-08T03:02:36.435Z,3.72
2019-01-08T03:03:36.442Z,3.80
2019-01-08T03:04:36.432Z,3.82
2019-01-08T03:05:36.410Z,3.72
2019-01-08T03:06:36.422Z,3.81
2019-01-08T03:07:36.385Z,3.67
2019-01-08T03:08:36.388Z,3.68
2019-01-08T03:09:36.370Z,3.63
2019-01-08T03:10:36.364Z,3.63
2019-01-08T03:11:36.344Z,3.68
2019-01-08T03:12:36.328Z,3.63
2019-01-08T03:13:36.342Z,3.72
2019-01-08T03:14:36.309Z,3.77
2019-01-08T03:15:36.301Z,3.74
2019-01-08T03:16:36.295Z,3.77
2019-01-08T03:17:36.304Z,3.78
2019-01-08T03:18:36.289Z,3.77
2019-01-08T03:19:36.261Z,3.80
2019-01-08T03:20:36.252Z,3.77
2019-01-08T03:21:36.240Z,3.64
2019-01-08T03:22:36.231Z,3.74
2019-01-08T03:23:36.230Z,3.74
2019-01-08T03:24:36.209Z,3.75
2019-01-08T03:25:36.223Z,3.81
2019-01-08T03:26:36.189Z,3.77
2019-01-08T03:27:36.182Z,3.78
2019-01-08T03:28:36.212Z,3.80
2019-01-08T03:29:36.157Z,3.86
2019-01-08T03:30:36.143Z,3.75
2019-01-08T03:31:36.132Z,3.80
2019-01-08T03:32:36.130Z,3.84
2019-01-08T03:33:36.118Z,3.81
2019-01-08T03:34:36.130Z,3.77
2019-01-08T03:35:36.094Z,3.74
2019-01-08T03:36:36.099Z,3.64
2019-01-08T03:37:36.085Z,3.57
2019-01-08T03:38:36.059Z,3.56
2019-01-08T03:39:36.123Z,3.52
2019-01-08T03:40:36.073Z,3.60
2019-01-08T03:41:36.032Z,3.39
2019-01-08T03:42:36.016Z,3.46
2019-01-08T03:43:36.052Z,3.41
2019-01-08T03:44:36.035Z,3.52
2019-01-08T03:45:35.986Z,3.46
2019-01-08T03:46:36.019Z,3.53
2019-01-08T03:47:35.978Z,3.50
2019-01-08T03:48:35.953Z,3.54
2019-01-08T03:49:35.972Z,3.54
2019-01-08T03:50:35.942Z,3.45
2019-01-08T03:51:35.933Z,3.54
2019-01-08T03:52:35.940Z,3.54
2019-01-08T03:53:35.919Z,3.50
2019-01-08T03:54:35.950Z,3.56
2019-01-08T03:55:35.887Z,3.54
2019-01-08T03:56:35.886Z,3.53
2019-01-08T03:57:35.857Z,3.54
2019-01-08T03:58:35.910Z,3.49
2019-01-08T03:59:41.906Z,3.57
2019-01-08T04:00:36.835Z,3.60
2019-01-08T04:01:35.821Z,3.68
2019-01-08T04:02:35.816Z,3.67
2019-01-08T04:03:35.808Z,3.63
2019-01-08T04:04:35.809Z,3.63
2019-01-08T04:05:35.776Z,3.80
2019-01-08T04:06:35.827Z,3.75
2019-01-08T04:07:35.768Z,3.74
2019-01-08T04:08:35.744Z,3.82
2019-01-08T04:09:35.778Z,3.80
2019-01-08T04:10:35.756Z,3.84
2019-01-08T04:11:35.760Z,3.92
2019-01-08T04:12:35.717Z,3.86
2019-01-08T04:13:35.704Z,3.95
2019-01-08T04:14:35.723Z,3.82
2019-01-08T04:15:35.686Z,3.96
2019-01-08T04:16:35.683Z,3.93
2019-01-08T04:17:35.655Z,4.00
2019-01-08T04:18:35.646Z,3.96
2019-01-08T04:19:35.626Z,3.98
2019-01-08T04:20:35.646Z,3.95
2019-01-08T04:21:35.613Z,3.93
2019-01-08T04:22:35.611Z,3.99
2019-01-08T04:23:35.610Z,4.07
2019-01-08T04:24:35.578Z,3.99
2019-01-08T04:25:35.601Z,4.00
2019-01-08T04:26:35.616Z,4.02
2019-01-08T04:27:35.558Z,4.02
2019-01-08T04:28:35.533Z,3.98
2019-01-08T04:29:35.526Z,3.98
2019-01-08T04:30:35.580Z,3.96
2019-01-08T04:31:35.508Z,3.99
2019-01-08T04:32:35.495Z,3.99
2019-01-08T04:33:35.491Z,4.04
2019-01-08T04:34:35.506Z,4.06
2019-01-08T04:35:35.486Z,3.98
2019-01-08T04:36:35.452Z,3.96
2019-01-08T04:37:35.450Z,3.93
2019-01-08T04:38:35.491Z,3.90
2019-01-08T04:39:35.418Z,3.93
2019-01-08T04:40:35.451Z,4.02
2019-01-08T04:41:35.405Z,4.02
2019-01-08T04:42:35.413Z,3.99
2019-01-08T04:43:35.393Z,4.02
2019-01-08T04:44:35.368Z,4.08
2019-01-08T04:45:35.372Z,4.13
2019-01-08T04:46:35.345Z,4.10
2019-01-08T04:47:35.333Z,4.16
2019-01-08T04:48:35.331Z,4.08
2019-01-08T04:49:35.390Z,4.13
2019-01-08T04:50:35.330Z,4.04
2019-01-08T04:51:35.293Z,4.08
2019-01-08T04:52:35.285Z,4.17
2019-01-08T04:53:35.319Z,4.11
2019-01-08T04:54:35.269Z,4.16
2019-01-08T04:55:35.287Z,4.16
2019-01-08T04:56:35.244Z,4.14
2019-01-08T04:57:35.258Z,4.20
2019-01-08T04:58:35.242Z,4.24
2019-01-08T04:59:35.229Z,4.21
2019-01-08T05:00:35.251Z,4.21
2019-01-08T05:01:35.202Z,4.26
2019-01-08T05:02:35.176Z,4.35
2019-01-08T05:03:35.196Z,4.36
2019-01-08T05:04:35.156Z,4.29
2019-01-08T05:05:35.164Z,4.18
2019-01-08T05:06:35.134Z,4.29
2019-01-08T05:07:35.127Z,4.21
2019-01-08T05:08:35.123Z,4.28
2019-01-08T05:09:35.127Z,4.26
2019-01-08T05:10:35.190Z,4.20
2019-01-08T05:11:35.086Z,4.36
2019-01-08T05:12:35.088Z,4.38
2019-01-08T05:13:35.085Z,4.31
2019-01-08T05:14:35.060Z,4.36
2019-01-08T05:15:35.044Z,4.38
2019-01-08T05:16:35.046Z,4.36
2019-01-08T05:17:35.019Z,4.46
2019-01-08T05:18:35.008Z,4.50
2019-01-08T05:19:35.031Z,4.46
2019-01-08T05:20:35.011Z,4.43
2019-01-08T05:21:35.110Z,4.42
2019-01-08T05:22:34.968Z,4.47
2019-01-08T05:23:34.975Z,4.46
2019-01-08T05:24:34.972Z,4.43
2019-01-08T05:25:34.934Z,4.36
2019-01-08T05:26:34.993Z,4.32
2019-01-08T05:27:34.916Z,4.34
2019-01-08T05:28:34.917Z,4.34
2019-01-08T05:29:34.891Z,4.38
2019-01-08T05:30:34.886Z,4.35
2019-01-08T05:31:34.925Z,4.34
2019-01-08T05:32:34.888Z,4.36
2019-01-08T05:33:34.853Z,4.29
2019-01-08T05:34:34.855Z,4.24
2019-01-08T05:35:34.873Z,4.34
2019-01-08T05:36:34.837Z,4.28
2019-01-08T05:37:34.809Z,4.29
2019-01-08T05:38:34.808Z,4.29
2019-01-08T05:39:34.805Z,4.31
2019-01-08T05:40:34.802Z,4.29
2019-01-08T05:41:34.790Z,4.34
2019-01-08T05:42:34.766Z,4.32
2019-01-08T05:43:34.798Z,4.29
2019-01-08T05:44:34.755Z,4.26
2019-01-08T05:45:34.763Z,4.35
2019-01-08T05:46:34.731Z,4.36
2019-01-08T05:47:34.717Z,4.28
2019-01-08T05:48:34.695Z,4.29
2019-01-08T05:49:34.691Z,4.38
2019-01-08T05:50:34.717Z,4.36
2019-01-08T05:51:34.665Z,4.34
2019-01-08T05:52:34.675Z,4.34
2019-01-08T05:53:34.649Z,4.32
2019-01-08T05:54:34.631Z,4.43
2019-01-08T05:55:34.643Z,4.46
2019-01-08T05:56:34.612Z,4.43
2019-01-08T05:57:34.638Z,4.47
2019-01-08T05:58:34.602Z,4.35
2019-01-08T05:59:34.640Z,4.46
2019-01-08T06:00:34.601Z,4.44
2019-01-08T06:01:34.559Z,4.47
2019-01-08T06:02:34.568Z,4.31
2019-01-08T06:03:34.538Z,4.42
2019-01-08T06:04:34.528Z,4.49
2019-01-08T06:05:34.562Z,4.46
2019-01-08T06:06:34.513Z,4.49
2019-01-08T06:07:34.524Z,4.44
2019-01-08T06:08:34.492Z,4.47
2019-01-08T06:09:34.478Z,4.44
2019-01-08T06:10:34.464Z,4.38
2019-01-08T06:11:34.480Z,4.32
2019-01-08T06:12:34.480Z,4.32
2019-01-08T06:13:34.440Z,4.26
2019-01-08T06:14:34.472Z,4.26
2019-01-08T06:15:34.444Z,4.24
2019-01-08T06:16:34.403Z,4.24
2019-01-08T06:17:34.411Z,4.17
2019-01-08T06:18:34.443Z,4.21
2019-01-08T06:19:34.369Z,4.17
2019-01-08T06:20:34.363Z,4.17
2019-01-08T06:21:34.394Z,4.20
2019-01-08T06:22:34.355Z,4.14
2019-01-08T06:23:34.327Z,4.18
2019-01-08T06:24:34.351Z,4.10
2019-01-08T06:25:34.328Z,4.14
2019-01-08T06:26:34.305Z,4.10
2019-01-08T06:27:34.352Z,4.18
2019-01-08T06:28:34.288Z,4.17
2019-01-08T06:29:34.284Z,4.14
2019-01-08T06:30:34.276Z,4.10
2019-01-08T06:31:34.248Z,4.16
2019-01-08T06:32:34.249Z,4.13
2019-01-08T06:33:34.244Z,4.13
2019-01-08T06:34:34.213Z,4.14
2019-01-08T06:35:34.202Z,4.17
2019-01-08T06:36:34.197Z,4.18
2019-01-08T06:37:34.200Z,4.16
2019-01-08T06:38:34.177Z,4.14
2019-01-08T06:39:34.161Z,4.11
2019-01-08T06:40:34.193Z,4.13
2019-01-08T06:41:34.176Z,4.06
2019-01-08T06:42:34.146Z,4.17
2019-01-08T06:43:34.155Z,4.16
2019-01-08T06:44:34.126Z,4.16
2019-01-08T06:45:34.096Z,4.11
2019-01-08T06:46:34.091Z,4.14
2019-01-08T06:47:34.117Z,4.06
2019-01-08T06:48:34.079Z,4.08
2019-01-08T06:49:34.091Z,4.02
2019-01-08T06:50:34.077Z,4.08
2019-01-08T06:51:34.070Z,4.06
2019-01-08T06:52:34.064Z,4.13
2019-01-08T06:53:34.036Z,4.11
2019-01-08T06:54:34.004Z,4.07
2019-01-08T06:55:33.999Z,4.04
2019-01-08T06:56:34.004Z,4.13
2019-01-08T06:57:34.002Z,4.11
2019-01-08T06:58:34.001Z,4.20
2019-01-08T06:59:33.952Z,4.08
2019-01-08T07:00:33.996Z,4.16
2019-01-08T07:01:33.959Z,4.17
2019-01-08T07:02:33.921Z,4.06
2019-01-08T07:03:33.933Z,4.08
2019-01-08T07:04:33.934Z,4.08
2019-01-08T07:05:33.886Z,4.07
2019-01-08T07:06:33.885Z,4.10
2019-01-08T07:07:33.878Z,4.08
2019-01-08T07:08:33.882Z,4.11
2019-01-08T07:09:33.880Z,4.06
2019-01-08T07:10:33.841Z,4.16
2019-01-08T07:11:33.911Z,4.14
2019-01-08T07:12:33.838Z,4.16
2019-01-08T07:13:33.820Z,4.16
2019-01-08T07:14:33.825Z,4.11
2019-01-08T07:15:33.831Z,4.20
2019-01-08T07:16:33.828Z,4.18
2019-01-08T07:17:33.764Z,4.14
2019-01-08T07:18:33.819Z,4.21
2019-01-08T07:19:33.799Z,4.16
2019-01-08T07:20:33.731Z,4.20
2019-01-08T07:21:33.723Z,4.13
2019-01-08T07:22:33.717Z,4.20
2019-01-08T07:23:33.757Z,4.20
2019-01-08T07:24:33.718Z,4.16
2019-01-08T07:25:41.935Z,4.16
2019-01-08T07:26:34.680Z,4.31
2019-01-08T07:27:33.669Z,4.36
2019-01-08T07:28:33.672Z,4.26
2019-01-08T07:29:33.636Z,4.34
2019-01-08T07:30:41.222Z,4.26
2019-01-08T07:31:34.626Z,4.28
2019-01-08T07:32:33.628Z,4.18
2019-01-08T07:33:33.639Z,4.21
2019-01-08T07:34:33.632Z,4.21
2019-01-08T07:35:33.594Z,4.16
2019-01-08T07:36:33.565Z,4.14
2019-01-08T07:37:33.556Z,4.16
2019-01-08T07:38:33.560Z,4.16
2019-01-08T07:39:33.557Z,4.17
2019-01-08T07:40:33.552Z,4.16
2019-01-08T07:41:33.518Z,4.07
2019-01-08T07:42:33.516Z,4.07
2019-01-08T07:43:33.573Z,4.06
2019-01-08T07:44:33.516Z,4.04
2019-01-08T07:45:33.481Z,4.06
2019-01-08T07:46:33.479Z,4.14
2019-01-08T07:47:33.469Z,4.02
2019-01-08T07:48:33.444Z,4.06
2019-01-08T07:49:33.446Z,4.10
2019-01-08T07:50:33.465Z,4.08
2019-01-08T07:51:33.435Z,4.04
2019-01-08T07:52:33.403Z,4.10
2019-01-08T07:53:33.406Z,4.07
2019-01-08T07:54:33.425Z,4.13
2019-01-08T07:55:33.399Z,4.07
2019-01-08T07:56:33.357Z,4.13
2019-01-08T07:57:33.355Z,4.13
2019-01-08T07:58:33.359Z,4.11
2019-01-08T07:59:33.349Z,4.10
2019-01-08T08:00:33.356Z,4.16
2019-01-08T08:01:33.350Z,4.18
2019-01-08T08:02:33.315Z,4.20
2019-01-08T08:03:33.285Z,4.18
2019-01-08T08:04:33.292Z,4.24
2019-01-08T08:05:33.269Z,4.20
2019-01-08T08:06:33.274Z,4.20
2019-01-08T08:07:33.275Z,4.24
2019-01-08T08:08:33.231Z,4.31
2019-01-08T08:09:33.240Z,4.26
2019-01-08T08:10:33.258Z,4.31
2019-01-08T08:11:33.200Z,4.26
2019-01-08T08:12:33.194Z,4.31
2019-01-08T08:13:33.205Z,4.28
2019-01-08T08:14:33.229Z,4.26
2019-01-08T08:15:33.162Z,4.31
2019-01-08T08:16:33.160Z,4.34
2019-01-08T08:17:33.140Z,4.36
2019-01-08T08:18:33.132Z,4.38
2019-01-08T08:19:33.119Z,4.36
2019-01-08T08:20:33.126Z,4.35
2019-01-08T08:21:33.101Z,4.43
2019-01-08T08:22:33.115Z,4.47
2019-01-08T08:23:33.078Z,4.50
2019-01-08T08:24:33.073Z,4.53
2019-01-08T08:25:33.077Z,4.51
2019-01-08T08:26:33.072Z,4.50
2019-01-08T08:27:33.036Z,4.47
2019-01-08T08:28:33.069Z,4.51
2019-01-08T08:29:33.036Z,4.46
2019-01-08T08:30:33.034Z,4.49
2019-01-08T08:31:32.994Z,4.57
2019-01-08T08:32:32.993Z,4.57
2019-01-08T08:33:32.983Z,4.59
2019-01-08T08:34:32.962Z,4.62
2019-01-08T08:35:32.985Z,4.68
2019-01-08T08:36:32.943Z,4.61
2019-01-08T08:37:32.931Z,4.65
2019-01-08T08:38:32.920Z,4.61
2019-01-08T08:39:32.970Z,4.64
2019-01-08T08:40:32.911Z,4.71
2019-01-08T08:41:32.894Z,4.68
2019-01-08T08:42:32.886Z,4.64
2019-01-08T08:43:32.864Z,4.64
2019-01-08T08:44:32.902Z,4.71
2019-01-08T08:45:32.868Z,4.71
2019-01-08T08:46:32.869Z,4.62
2019-01-08T08:47:32.830Z,4.67
2019-01-08T08:48:32.838Z,4.64
2019-01-08T08:49:32.804Z,4.77
2019-01-08T08:50:32.821Z,4.80
2019-01-08T08:51:32.794Z,4.79
2019-01-08T08:52:32.791Z,4.79
2019-01-08T08:53:32.758Z,4.71
2019-01-08T08:54:32.751Z,4.79
2019-01-08T08:55:32.750Z,4.80
2019-01-08T08:56:32.749Z,4.84
2019-01-08T08:57:32.719Z,4.77
2019-01-08T08:58:32.710Z,4.79
2019-01-08T08:59:32.776Z,4.79
2019-01-08T09:00:32.718Z,4.86
2019-01-08T09:01:32.674Z,4.87
2019-01-08T09:02:32.676Z,4.87
2019-01-08T09:03:32.675Z,5.02
2019-01-08T09:04:32.650Z,4.99
2019-01-08T09:05:32.645Z,4.99
2019-01-08T09:06:32.634Z,4.96
2019-01-08T09:07:32.625Z,5.05
2019-01-08T09:08:32.601Z,5.02
2019-01-08T09:09:32.661Z,5.04
2019-01-08T09:10:32.593Z,4.97
2019-01-08T09:11:32.618Z,4.96
2019-01-08T09:12:32.594Z,4.94
2019-01-08T09:13:32.553Z,4.97
2019-01-08T09:14:32.553Z,4.94
2019-01-08T09:15:32.582Z,4.91
2019-01-08T09:16:32.519Z,4.93
2019-01-08T09:17:32.507Z,4.87
2019-01-08T09:18:33.760Z,4.90
2019-01-08T09:19:32.543Z,4.96
2019-01-08T09:20:32.503Z,4.88
2019-01-08T09:21:32.478Z,4.88
2019-01-08T09:22:32.468Z,4.87
2019-01-08T09:23:32.448Z,4.93
2019-01-08T09:24:32.442Z,4.91
2019-01-08T09:25:32.425Z,4.87
2019-01-08T09:26:32.453Z,4.90
2019-01-08T09:27:32.397Z,4.90
2019-01-08T09:28:32.387Z,4.87
2019-01-08T09:29:32.415Z,4.90
2019-01-08T09:30:32.368Z,4.80
2019-01-08T09:31:32.416Z,4.83
2019-01-08T09:32:32.365Z,4.80
2019-01-08T09:33:32.335Z,4.84
2019-01-08T09:34:32.325Z,4.83
2019-01-08T09:35:32.314Z,4.83
2019-01-08T09:36:32.345Z,4.87
2019-01-08T09:37:32.299Z,4.79
2019-01-08T09:38:32.308Z,4.80
2019-01-08T09:39:32.317Z,4.72
2019-01-08T09:40:32.264Z,4.79
2019-01-08T09:41:32.279Z,4.69
2019-01-08T09:42:32.240Z,4.80
2019-01-08T09:43:32.222Z,4.65
2019-01-08T09:44:32.238Z,4.64
2019-01-08T09:45:32.221Z,4.65
2019-01-08T09:46:32.225Z,4.67
2019-01-08T09:47:32.230Z,4.65
2019-01-08T09:48:32.176Z,4.69
2019-01-08T09:49:32.178Z,4.61
2019-01-08T09:50:32.195Z,4.65
2019-01-08T09:51:32.182Z,4.64
2019-01-08T09:52:32.163Z,4.65
2019-01-08T09:53:32.117Z,4.57
2019-01-08T09:54:32.107Z,4.65
2019-01-08T09:55:32.112Z,4.64
2019-01-08T09:56:32.108Z,4.64
2019-01-08T09:57:32.110Z,4.69
2019-01-08T09:58:32.105Z,4.62
2019-01-08T09:59:32.068Z,4.77
2019-01-08T10:00:32.065Z,4.86
2019-01-08T10:01:32.031Z,4.91
2019-01-08T10:02:32.035Z,4.99
2019-01-08T10:03:32.028Z,5.01
2019-01-08T10:04:32.072Z,5.08
2019-01-08T10:05:31.992Z,5.11
2019-01-08T10:06:31.987Z,5.11
2019-01-08T10:07:31.984Z,5.06
2019-01-08T10:08:31.985Z,5.05
2019-01-08T10:11:43.354Z,5.05
2019-01-08T10:12:43.330Z,5.22
2019-01-08T10:13:43.316Z,5.22
2019-01-08T10:14:43.309Z,5.30
2019-01-08T10:15:43.293Z,5.32
2019-01-08T10:16:43.297Z,5.41
2019-01-08T10:17:43.281Z,5.41
2019-01-08T10:18:43.262Z,5.45
2019-01-08T10:19:43.268Z,5.47
2019-01-08T10:20:43.239Z,5.62
2019-01-08T10:21:43.250Z,5.75
2019-01-08T10:22:43.303Z,5.83
2019-01-08T10:23:43.215Z,5.98
2019-01-08T10:24:43.200Z,6.02
2019-01-08T10:25:43.185Z,5.93
2019-01-08T10:26:43.219Z,5.90
2019-01-08T10:27:43.176Z,5.88
2019-01-08T10:28:43.160Z,5.87
2019-01-08T10:29:43.147Z,5.96
2019-01-08T10:30:43.134Z,5.96
2019-01-08T10:31:43.121Z,6.02
2019-01-08T10:32:43.138Z,5.98
2019-01-08T10:33:43.101Z,5.90
2019-01-08T10:34:43.090Z,5.98
2019-01-08T10:35:43.101Z,5.93
2019-01-08T10:36:43.069Z,5.95
2019-01-08T10:37:43.070Z,6.10
2019-01-08T10:38:43.047Z,6.16
2019-01-08T10:39:43.035Z,6.20
2019-01-08T10:40:43.026Z,6.35
2019-01-08T10:41:43.023Z,6.43
2019-01-08T10:42:43.035Z,6.38
2019-01-08T10:43:42.994Z,6.48
2019-01-08T10:44:42.983Z,6.50
2019-01-08T10:45:42.975Z,6.35
2019-01-08T10:46:42.960Z,6.38
2019-01-08T10:47:42.969Z,6.17
2019-01-08T10:48:42.940Z,6.11
2019-01-08T10:49:42.930Z,6.01
2019-01-08T10:50:42.919Z,5.90
2019-01-08T10:51:42.907Z,5.93
2019-01-08T10:52:42.911Z,5.96
2019-01-08T10:53:42.892Z,5.77
2019-01-08T10:54:42.879Z,5.77
2019-01-08T10:55:42.927Z,5.78
2019-01-08T10:56:42.855Z,5.77
2019-01-08T10:57:42.869Z,5.85
2019-01-08T10:58:42.833Z,5.80
2019-01-08T10:59:42.832Z,5.83
2019-01-08T11:00:42.891Z,5.80
2019-01-08T11:01:42.800Z,5.80
2019-01-08T11:02:42.788Z,5.75
2019-01-08T11:03:42.814Z,5.81
2019-01-08T11:04:42.768Z,5.75
2019-01-08T11:05:42.784Z,5.78
2019-01-08T11:06:42.767Z,5.85
2019-01-08T11:07:42.735Z,5.81
2019-01-08T11:08:42.737Z,5.93
2019-01-08T11:09:42.719Z,5.90
2019-01-08T11:10:42.705Z,5.85
2019-01-08T11:11:42.693Z,5.81
2019-01-08T11:12:42.720Z,5.83
2019-01-08T11:13:42.686Z,5.83
2019-01-08T11:14:42.661Z,5.80
2019-01-08T11:15:42.649Z,5.78
2019-01-08T11:16:42.647Z,5.74
2019-01-08T11:17:42.627Z,5.78
2019-01-08T11:18:42.635Z,5.74
2019-01-08T11:19:42.607Z,5.74
2019-01-08T11:20:42.597Z,5.73
2019-01-08T11:21:42.586Z,5.73
2019-01-08T11:22:42.574Z,5.77
2019-01-08T11:23:42.575Z,5.65
2019-01-08T11:24:42.562Z,5.65
2019-01-08T11:25:42.543Z,5.78
2019-01-08T11:26:42.533Z,5.69
2019-01-08T11:27:42.520Z,5.63
2019-01-08T11:28:43.231Z,5.67
2019-01-08T11:29:42.501Z,5.60
2019-01-08T11:30:42.501Z,5.66
2019-01-08T11:31:48.805Z,5.63
2019-01-08T11:32:43.465Z,5.69
2019-01-08T11:33:42.473Z,5.66
2019-01-08T11:34:42.446Z,5.73
2019-01-08T11:35:42.538Z,5.75
2019-01-08T11:36:42.425Z,5.69
2019-01-08T11:37:42.412Z,5.74
2019-01-08T11:38:42.417Z,5.78
2019-01-08T11:39:42.393Z,5.77
2019-01-08T11:40:42.379Z,5.77
2019-01-08T11:41:42.369Z,5.77
2019-01-08T11:42:42.369Z,5.81
2019-01-08T11:43:42.383Z,5.87
2019-01-08T11:44:42.419Z,5.83
2019-01-08T11:45:42.326Z,5.73
2019-01-08T11:46:42.316Z,5.78
2019-01-08T11:47:42.304Z,5.78
2019-01-08T11:48:42.302Z,5.78
2019-01-08T11:49:42.296Z,5.80
2019-01-08T11:50:42.271Z,5.88
2019-01-08T11:51:42.262Z,5.95
2019-01-08T11:52:42.249Z,5.95
2019-01-08T11:53:42.243Z,5.92
2019-01-08T11:54:42.247Z,5.90
2019-01-08T11:55:42.218Z,5.87
2019-01-08T11:56:42.207Z,5.84
2019-01-08T11:57:42.196Z,5.83
2019-01-08T11:58:42.185Z,5.92
2019-01-08T11:59:42.193Z,5.95
2019-01-08T12:00:42.171Z,5.90
2019-01-08T12:01:42.224Z,5.96
2019-01-08T12:02:47.769Z,5.98
2019-01-08T12:03:43.129Z,5.93
2019-01-08T12:04:42.144Z,5.85
2019-01-08T12:05:42.112Z,5.87
2019-01-08T12:06:42.102Z,5.96
2019-01-08T12:07:42.102Z,5.87
2019-01-08T12:08:42.078Z,5.87
2019-01-08T12:09:42.082Z,5.85
2019-01-08T12:10:42.057Z,5.93
2019-01-08T12:11:42.045Z,5.85
2019-01-08T12:12:42.034Z,5.85
2019-01-08T12:13:42.033Z,5.80
2019-01-08T12:14:42.027Z,5.96
2019-01-08T12:15:42.003Z,5.90
2019-01-08T12:16:41.992Z,5.90
2019-01-08T12:17:41.980Z,5.96
2019-01-08T12:18:41.991Z,5.90
2019-01-08T12:19:42.001Z,5.96
2019-01-08T12:20:41.949Z,5.95
2019-01-08T12:21:41.939Z,6.02
2019-01-08T12:22:41.927Z,6.03
2019-01-08T12:23:41.918Z,6.06
2019-01-08T12:24:41.905Z,6.10
2019-01-08T12:25:41.922Z,6.06
2019-01-08T12:26:41.885Z,6.08
2019-01-08T12:27:41.874Z,6.10
2019-01-08T12:28:41.864Z,6.11
2019-01-08T12:29:41.853Z,6.14
2019-01-08T12:30:41.855Z,6.14
2019-01-08T12:31:41.836Z,6.20
2019-01-08T12:32:41.829Z,6.32
2019-01-08T12:33:41.808Z,6.28
2019-01-08T12:34:41.800Z,6.40
2019-01-08T12:35:41.805Z,6.42
2019-01-08T12:36:41.776Z,6.51
2019-01-08T12:37:42.170Z,6.55
2019-01-08T12:38:41.755Z,6.68
2019-01-08T12:39:41.744Z,6.79
2019-01-08T12:40:41.746Z,6.97
2019-01-08T12:41:41.723Z,7.26
2019-01-08T12:42:41.711Z,7.52
2019-01-08T12:43:41.710Z,7.62
2019-01-08T12:44:41.690Z,7.81
2019-01-08T12:45:41.693Z,7.96
2019-01-08T12:46:41.669Z,8.03
2019-01-08T12:47:41.657Z,8.29
2019-01-08T12:48:41.647Z,8.02
2019-01-08T12:49:41.647Z,7.94
2019-01-08T12:50:41.721Z,7.79
2019-01-08T12:51:41.615Z,7.67
2019-01-08T12:52:41.606Z,7.51
2019-01-08T12:53:41.591Z,7.36
2019-01-08T12:54:41.587Z,7.39
2019-01-08T12:55:41.596Z,7.23
2019-01-08T12:56:41.560Z,7.12
2019-01-08T12:57:41.549Z,7.12
2019-01-08T12:58:41.587Z,7.05
2019-01-08T12:59:41.586Z,7.04
2019-01-08T13:00:41.537Z,7.04
2019-01-08T13:01:41.540Z,7.01
2019-01-08T13:02:41.508Z,6.99
2019-01-08T13:03:41.490Z,6.93
2019-01-08T13:04:41.473Z,6.91
2019-01-08T13:05:41.475Z,6.83
2019-01-08T13:06:43.583Z,6.83
2019-01-08T13:07:41.447Z,6.81
2019-01-08T13:08:41.430Z,6.86
2019-01-08T13:09:41.421Z,6.89
2019-01-08T13:10:41.435Z,6.93
2019-01-08T13:11:41.398Z,7.00
2019-01-08T13:12:41.401Z,7.14
2019-01-08T13:13:41.387Z,7.27
2019-01-08T13:14:41.366Z,7.29
2019-01-08T13:15:41.369Z,7.16
2019-01-08T13:16:41.348Z,7.12
2019-01-08T13:17:41.336Z,7.12
2019-01-08T13:18:41.323Z,7.07
2019-01-08T13:19:41.314Z,7.05
2019-01-08T13:20:41.338Z,7.00